sensor_id;sensor_type;location;lat;lon;timestamp;temperature;humidity
54788;DHT22;59598;48.112;16.280;2022-09-21T00:01:43;9.40;99.90
54788;DHT22;59598;48.112;16.280;2022-09-21T00:04:17;9.50;99.90
54788;DHT22;59598;48.112;16.280;2022-09-21T00:06:51;9.50;99.90
54788;DHT22;59598;48.112;16.280;2022-09-21T00:09:23;9.50;99.90
54788;DHT22;59598;48.112;16.280;2022-09-21T00:12:00;9.50;99.90
54788;DHT22;59598;48.112;16.280;2022-09-21T00:14:32;9.40;99.90
54788;DHT22;59598;48.112;16.280;2022-09-21T00:17:09;9.40;99.90
54788;DHT22;59598;48.112;16.280;2022-09-21T00:19:47;9.40;99.90
54788;DHT22;59598;48.112;16.280;2022-09-21T00:22:19;9.30;99.90
54788;DHT22;59598;48.112;16.280;2022-09-21T00:24:50;9.30;99.90
54788;DHT22;59598;48.112;16.280;2022-09-21T00:27:25;9.40;99.90
54788;DHT22;59598;48.112;16.280;2022-09-21T00:30:00;9.40;99.90
54788;DHT22;59598;48.112;16.280;2022-09-21T00:32:37;9.40;99.90
54788;DHT22;59598;48.112;16.280;2022-09-21T00:35:12;9.40;99.90
54788;DHT22;59598;48.112;16.280;2022-09-21T00:37:46;9.40;99.90
54788;DHT22;59598;48.112;16.280;2022-09-21T00:40:17;9.40;99.90
54788;DHT22;59598;48.112;16.280;2022-09-21T00:42:49;9.30;99.90
54788;DHT22;59598;48.112;16.280;2022-09-21T00:45:25;9.40;99.90
54788;DHT22;59598;48.112;16.280;2022-09-21T00:47:57;9.40;99.90
54788;DHT22;59598;48.112;16.280;2022-09-21T00:50:41;9.40;99.90
54788;DHT22;59598;48.112;16.280;2022-09-21T00:53:20;9.40;99.90
54788;DHT22;59598;48.112;16.280;2022-09-21T00:55:54;9.50;99.90
54788;DHT22;59598;48.112;16.280;2022-09-21T00:58:38;9.40;99.90
54788;DHT22;59598;48.112;16.280;2022-09-21T01:01:13;9.40;99.90
54788;DHT22;59598;48.112;16.280;2022-09-21T01:03:49;9.30;99.90
54788;DHT22;59598;48.112;16.280;2022-09-21T01:06:22;9.30;99.90
54788;DHT22;59598;48.112;16.280;2022-09-21T01:08:58;9.30;99.90
54788;DHT22;59598;48.112;16.280;2022-09-21T01:27:30;8.80;99.90
54788;DHT22;59598;48.112;16.280;2022-09-21T01:30:08;8.50;99.90
54788;DHT22;59598;48.112;16.280;2022-09-21T01:32:57;8.60;99.90
54788;DHT22;59598;48.112;16.280;2022-09-21T01:35:49;8.60;99.90
54788;DHT22;59598;48.112;16.280;2022-09-21T01:38:36;8.60;99.90
54788;DHT22;59598;48.112;16.280;2022-09-21T01:41:13;8.40;99.90
54788;DHT22;59598;48.112;16.280;2022-09-21T01:43:50;8.60;99.90
54788;DHT22;59598;48.112;16.280;2022-09-21T01:46:29;8.60;99.90
54788;DHT22;59598;48.112;16.280;2022-09-21T01:49:09;8.50;99.90
54788;DHT22;59598;48.112;16.280;2022-09-21T01:51:47;8.40;99.90
54788;DHT22;59598;48.112;16.280;2022-09-21T01:54:29;8.60;99.90
54788;DHT22;59598;48.112;16.280;2022-09-21T01:57:14;8.70;99.90
54788;DHT22;59598;48.112;16.280;2022-09-21T02:00:11;8.80;99.90
54788;DHT22;59598;48.112;16.280;2022-09-21T02:02:54;8.90;99.90
54788;DHT22;59598;48.112;16.280;2022-09-21T02:05:30;8.90;99.90
54788;DHT22;59598;48.112;16.280;2022-09-21T02:08:04;9.00;99.90
54788;DHT22;59598;48.112;16.280;2022-09-21T02:10:49;9.10;99.90
54788;DHT22;59598;48.112;16.280;2022-09-21T02:13:23;9.20;99.90
54788;DHT22;59598;48.112;16.280;2022-09-21T02:22:02;9.30;99.90
54788;DHT22;59598;48.112;16.280;2022-09-21T02:24:43;9.30;99.90
54788;DHT22;59598;48.112;16.280;2022-09-21T02:27:52;9.30;99.90
54788;DHT22;59598;48.112;16.280;2022-09-21T02:30:52;9.30;99.90
54788;DHT22;59598;48.112;16.280;2022-09-21T02:33:33;9.30;99.90
54788;DHT22;59598;48.112;16.280;2022-09-21T02:39:58;9.30;99.90
54788;DHT22;59598;48.112;16.280;2022-09-21T02:42:42;9.30;99.90
54788;DHT22;59598;48.112;16.280;2022-09-21T02:45:21;9.40;99.90
54788;DHT22;59598;48.112;16.280;2022-09-21T02:48:07;9.40;99.90
54788;DHT22;59598;48.112;16.280;2022-09-21T02:50:52;9.30;99.90
54788;DHT22;59598;48.112;16.280;2022-09-21T02:53:28;9.30;99.90
54788;DHT22;59598;48.112;16.280;2022-09-21T02:56:03;9.40;99.90
54788;DHT22;59598;48.112;16.280;2022-09-21T02:58:50;9.30;99.90
54788;DHT22;59598;48.112;16.280;2022-09-21T03:01:27;9.40;99.90
54788;DHT22;59598;48.112;16.280;2022-09-21T03:04:00;9.40;99.90
54788;DHT22;59598;48.112;16.280;2022-09-21T03:06:32;9.40;99.90
54788;DHT22;59598;48.112;16.280;2022-09-21T03:09:07;9.40;99.90
54788;DHT22;59598;48.112;16.280;2022-09-21T03:11:39;9.40;99.90
54788;DHT22;59598;48.112;16.280;2022-09-21T03:14:12;9.40;99.90
54788;DHT22;59598;48.112;16.280;2022-09-21T03:16:49;9.40;99.90
54788;DHT22;59598;48.112;16.280;2022-09-21T03:19:22;9.40;99.90
54788;DHT22;59598;48.112;16.280;2022-09-21T03:21:57;9.40;99.90
54788;DHT22;59598;48.112;16.280;2022-09-21T03:24:29;9.40;99.90
54788;DHT22;59598;48.112;16.280;2022-09-21T03:27:19;9.40;99.90
54788;DHT22;59598;48.112;16.280;2022-09-21T03:29:54;9.40;99.90
54788;DHT22;59598;48.112;16.280;2022-09-21T03:32:30;9.40;99.90
54788;DHT22;59598;48.112;16.280;2022-09-21T03:35:05;9.40;99.90
54788;DHT22;59598;48.112;16.280;2022-09-21T03:37:36;9.40;99.90
54788;DHT22;59598;48.112;16.280;2022-09-21T03:40:08;9.40;99.90
54788;DHT22;59598;48.112;16.280;2022-09-21T03:42:42;9.40;99.90
54788;DHT22;59598;48.112;16.280;2022-09-21T03:45:14;9.40;99.90
54788;DHT22;59598;48.112;16.280;2022-09-21T03:47:45;9.40;99.90
54788;DHT22;59598;48.112;16.280;2022-09-21T03:50:19;9.40;99.90
54788;DHT22;59598;48.112;16.280;2022-09-21T03:52:51;9.50;99.90
54788;DHT22;59598;48.112;16.280;2022-09-21T03:55:23;9.40;99.90
54788;DHT22;59598;48.112;16.280;2022-09-21T03:57:54;9.40;99.90
54788;DHT22;59598;48.112;16.280;2022-09-21T04:00:29;9.30;99.90
54788;DHT22;59598;48.112;16.280;2022-09-21T04:03:01;9.30;99.90
54788;DHT22;59598;48.112;16.280;2022-09-21T04:05:32;9.20;99.90
54788;DHT22;59598;48.112;16.280;2022-09-21T04:08:06;9.10;99.90
54788;DHT22;59598;48.112;16.280;2022-09-21T04:10:40;9.00;99.90
54788;DHT22;59598;48.112;16.280;2022-09-21T04:13:16;9.00;99.90
54788;DHT22;59598;48.112;16.280;2022-09-21T04:15:52;8.90;99.90
54788;DHT22;59598;48.112;16.280;2022-09-21T04:18:26;8.80;99.90
54788;DHT22;59598;48.112;16.280;2022-09-21T04:20:58;8.70;99.90
54788;DHT22;59598;48.112;16.280;2022-09-21T04:23:31;8.80;99.90
54788;DHT22;59598;48.112;16.280;2022-09-21T04:26:05;8.80;99.90
54788;DHT22;59598;48.112;16.280;2022-09-21T04:28:37;8.70;99.90
54788;DHT22;59598;48.112;16.280;2022-09-21T04:31:12;8.60;99.90
54788;DHT22;59598;48.112;16.280;2022-09-21T04:33:46;8.60;99.90
54788;DHT22;59598;48.112;16.280;2022-09-21T04:36:20;8.50;99.90
54788;DHT22;59598;48.112;16.280;2022-09-21T04:38:52;8.50;99.90
54788;DHT22;59598;48.112;16.280;2022-09-21T04:41:26;8.50;99.90
54788;DHT22;59598;48.112;16.280;2022-09-21T04:44:00;8.50;99.90
54788;DHT22;59598;48.112;16.280;2022-09-21T04:46:37;8.50;99.90
54788;DHT22;59598;48.112;16.280;2022-09-21T04:49:12;8.50;99.90
54788;DHT22;59598;48.112;16.280;2022-09-21T04:51:44;8.50;99.90
54788;DHT22;59598;48.112;16.280;2022-09-21T04:54:15;8.50;99.90
54788;DHT22;59598;48.112;16.280;2022-09-21T04:56:52;8.50;99.90
54788;DHT22;59598;48.112;16.280;2022-09-21T04:59:24;8.60;99.90
54788;DHT22;59598;48.112;16.280;2022-09-21T05:01:55;8.60;99.90
54788;DHT22;59598;48.112;16.280;2022-09-21T05:04:27;8.60;99.90
54788;DHT22;59598;48.112;16.280;2022-09-21T05:07:04;8.70;99.90
54788;DHT22;59598;48.112;16.280;2022-09-21T05:09:35;8.70;99.90
54788;DHT22;59598;48.112;16.280;2022-09-21T05:12:32;8.80;99.90
54788;DHT22;59598;48.112;16.280;2022-09-21T05:15:04;8.80;99.90
54788;DHT22;59598;48.112;16.280;2022-09-21T05:17:40;8.90;99.90
54788;DHT22;59598;48.112;16.280;2022-09-21T05:20:11;8.90;99.90
54788;DHT22;59598;48.112;16.280;2022-09-21T05:22:45;9.10;99.90
54788;DHT22;59598;48.112;16.280;2022-09-21T05:25:17;9.10;99.90
54788;DHT22;59598;48.112;16.280;2022-09-21T05:27:50;9.20;99.90
54788;DHT22;59598;48.112;16.280;2022-09-21T05:30:22;9.40;99.90
54788;DHT22;59598;48.112;16.280;2022-09-21T05:33:01;9.50;99.90
54788;DHT22;59598;48.112;16.280;2022-09-21T05:38:51;9.60;99.90
54788;DHT22;59598;48.112;16.280;2022-09-21T05:41:23;9.70;99.90
54788;DHT22;59598;48.112;16.280;2022-09-21T05:43:55;9.80;99.90
54788;DHT22;59598;48.112;16.280;2022-09-21T05:52:08;10.00;99.90
54788;DHT22;59598;48.112;16.280;2022-09-21T05:57:42;10.10;99.90
54788;DHT22;59598;48.112;16.280;2022-09-21T06:00:20;10.10;99.90
54788;DHT22;59598;48.112;16.280;2022-09-21T06:03:14;10.10;99.90
54788;DHT22;59598;48.112;16.280;2022-09-21T06:05:57;10.20;99.90
54788;DHT22;59598;48.112;16.280;2022-09-21T06:08:32;10.30;99.90
54788;DHT22;59598;48.112;16.280;2022-09-21T06:11:04;10.30;99.90
54788;DHT22;59598;48.112;16.280;2022-09-21T06:13:35;10.40;99.90
54788;DHT22;59598;48.112;16.280;2022-09-21T06:16:10;10.60;99.90
54788;DHT22;59598;48.112;16.280;2022-09-21T06:18:41;10.80;99.90
54788;DHT22;59598;48.112;16.280;2022-09-21T06:21:13;10.90;99.90
54788;DHT22;59598;48.112;16.280;2022-09-21T06:23:44;10.70;99.90
54788;DHT22;59598;48.112;16.280;2022-09-21T06:26:16;10.60;99.90
54788;DHT22;59598;48.112;16.280;2022-09-21T06:28:49;10.30;99.90
54788;DHT22;59598;48.112;16.280;2022-09-21T06:31:21;10.20;99.90
54788;DHT22;59598;48.112;16.280;2022-09-21T06:33:53;10.20;99.90
54788;DHT22;59598;48.112;16.280;2022-09-21T06:36:27;10.30;99.90
54788;DHT22;59598;48.112;16.280;2022-09-21T06:39:01;10.30;99.90
54788;DHT22;59598;48.112;16.280;2022-09-21T06:41:32;10.50;99.90
54788;DHT22;59598;48.112;16.280;2022-09-21T06:44:06;10.50;99.90
54788;DHT22;59598;48.112;16.280;2022-09-21T06:46:38;10.50;99.90
54788;DHT22;59598;48.112;16.280;2022-09-21T06:49:10;10.50;99.90
54788;DHT22;59598;48.112;16.280;2022-09-21T06:51:41;10.50;99.90
54788;DHT22;59598;48.112;16.280;2022-09-21T06:54:15;10.40;99.90
54788;DHT22;59598;48.112;16.280;2022-09-21T06:56:50;10.50;99.90
54788;DHT22;59598;48.112;16.280;2022-09-21T06:59:21;10.60;99.90
54788;DHT22;59598;48.112;16.280;2022-09-21T07:01:53;10.70;99.90
54788;DHT22;59598;48.112;16.280;2022-09-21T07:04:28;10.70;99.90
54788;DHT22;59598;48.112;16.280;2022-09-21T07:06:59;10.60;99.90
54788;DHT22;59598;48.112;16.280;2022-09-21T07:09:33;10.70;99.90
54788;DHT22;59598;48.112;16.280;2022-09-21T07:12:05;10.60;99.90
54788;DHT22;59598;48.112;16.280;2022-09-21T07:14:39;10.60;99.90
54788;DHT22;59598;48.112;16.280;2022-09-21T07:17:11;10.70;99.90
54788;DHT22;59598;48.112;16.280;2022-09-21T07:19:47;10.80;99.90
54788;DHT22;59598;48.112;16.280;2022-09-21T07:22:20;10.70;99.90
54788;DHT22;59598;48.112;16.280;2022-09-21T07:24:52;10.80;99.90
54788;DHT22;59598;48.112;16.280;2022-09-21T07:27:29;10.80;99.90
54788;DHT22;59598;48.112;16.280;2022-09-21T07:30:02;10.80;99.90
54788;DHT22;59598;48.112;16.280;2022-09-21T07:32:39;10.80;99.90
54788;DHT22;59598;48.112;16.280;2022-09-21T07:35:11;11.10;99.90
54788;DHT22;59598;48.112;16.280;2022-09-21T07:37:45;11.50;99.90
54788;DHT22;59598;48.112;16.280;2022-09-21T07:40:16;11.70;99.90
54788;DHT22;59598;48.112;16.280;2022-09-21T07:42:48;11.70;99.90
54788;DHT22;59598;48.112;16.280;2022-09-21T07:45:22;12.00;99.90
54788;DHT22;59598;48.112;16.280;2022-09-21T07:47:54;12.00;99.90
54788;DHT22;59598;48.112;16.280;2022-09-21T07:50:26;12.20;99.90
54788;DHT22;59598;48.112;16.280;2022-09-21T07:53:06;11.80;99.90
54788;DHT22;59598;48.112;16.280;2022-09-21T07:55:39;11.80;99.90
54788;DHT22;59598;48.112;16.280;2022-09-21T07:58:13;11.50;99.90
54788;DHT22;59598;48.112;16.280;2022-09-21T08:01:06;11.60;99.90
54788;DHT22;59598;48.112;16.280;2022-09-21T08:03:38;11.60;99.90
54788;DHT22;59598;48.112;16.280;2022-09-21T08:06:13;11.80;99.90
54788;DHT22;59598;48.112;16.280;2022-09-21T08:08:45;11.80;99.90
54788;DHT22;59598;48.112;16.280;2022-09-21T08:11:22;11.70;99.90
54788;DHT22;59598;48.112;16.280;2022-09-21T08:14:00;11.70;99.90
54788;DHT22;59598;48.112;16.280;2022-09-21T08:16:33;11.70;99.90
54788;DHT22;59598;48.112;16.280;2022-09-21T08:19:04;11.80;99.90
54788;DHT22;59598;48.112;16.280;2022-09-21T08:21:38;11.60;99.90
54788;DHT22;59598;48.112;16.280;2022-09-21T08:24:10;11.60;99.90
54788;DHT22;59598;48.112;16.280;2022-09-21T08:26:42;11.80;99.90
54788;DHT22;59598;48.112;16.280;2022-09-21T08:29:14;12.00;99.90
54788;DHT22;59598;48.112;16.280;2022-09-21T08:31:45;12.10;99.90
54788;DHT22;59598;48.112;16.280;2022-09-21T08:34:19;12.10;99.90
54788;DHT22;59598;48.112;16.280;2022-09-21T08:36:51;11.80;99.90
54788;DHT22;59598;48.112;16.280;2022-09-21T08:39:25;11.90;99.90
54788;DHT22;59598;48.112;16.280;2022-09-21T08:42:52;12.00;99.90
54788;DHT22;59598;48.112;16.280;2022-09-21T08:45:25;12.20;99.90
54788;DHT22;59598;48.112;16.280;2022-09-21T08:48:28;12.50;99.90
54788;DHT22;59598;48.112;16.280;2022-09-21T08:51:06;12.50;99.90
54788;DHT22;59598;48.112;16.280;2022-09-21T08:53:52;12.80;99.90
54788;DHT22;59598;48.112;16.280;2022-09-21T08:56:27;13.10;99.90
54788;DHT22;59598;48.112;16.280;2022-09-21T08:59:01;13.20;99.90
54788;DHT22;59598;48.112;16.280;2022-09-21T09:05:11;13.20;99.90
54788;DHT22;59598;48.112;16.280;2022-09-21T09:19:28;14.20;99.90
54788;DHT22;59598;48.112;16.280;2022-09-21T09:22:36;14.10;99.90
54788;DHT22;59598;48.112;16.280;2022-09-21T09:25:23;14.40;99.90
54788;DHT22;59598;48.112;16.280;2022-09-21T09:28:19;14.10;99.90
54788;DHT22;59598;48.112;16.280;2022-09-21T09:31:20;13.60;99.90
54788;DHT22;59598;48.112;16.280;2022-09-21T09:36:34;13.70;99.90
54788;DHT22;59598;48.112;16.280;2022-09-21T09:39:12;13.80;99.90
54788;DHT22;59598;48.112;16.280;2022-09-21T09:45:37;13.80;99.90
54788;DHT22;59598;48.112;16.280;2022-09-21T09:48:20;13.70;99.90
54788;DHT22;59598;48.112;16.280;2022-09-21T09:51:15;14.10;99.90
54788;DHT22;59598;48.112;16.280;2022-09-21T09:53:50;14.70;99.90
54788;DHT22;59598;48.112;16.280;2022-09-21T09:56:24;14.70;99.90
54788;DHT22;59598;48.112;16.280;2022-09-21T09:59:02;14.70;99.90
54788;DHT22;59598;48.112;16.280;2022-09-21T10:01:58;14.90;99.90
54788;DHT22;59598;48.112;16.280;2022-09-21T10:04:35;15.30;99.90
54788;DHT22;59598;48.112;16.280;2022-09-21T10:07:17;16.40;99.90
54788;DHT22;59598;48.112;16.280;2022-09-21T10:09:52;16.10;99.90
54788;DHT22;59598;48.112;16.280;2022-09-21T10:12:24;15.70;99.90
54788;DHT22;59598;48.112;16.280;2022-09-21T10:15:00;14.90;99.90
54788;DHT22;59598;48.112;16.280;2022-09-21T10:17:31;14.40;99.90
54788;DHT22;59598;48.112;16.280;2022-09-21T10:20:13;15.30;99.90
54788;DHT22;59598;48.112;16.280;2022-09-21T10:22:58;15.70;99.90
54788;DHT22;59598;48.112;16.280;2022-09-21T10:25:30;16.00;99.90
54788;DHT22;59598;48.112;16.280;2022-09-21T10:28:04;16.70;99.90
54788;DHT22;59598;48.112;16.280;2022-09-21T10:30:36;16.70;99.90
54788;DHT22;59598;48.112;16.280;2022-09-21T10:33:21;16.80;99.90
54788;DHT22;59598;48.112;16.280;2022-09-21T10:35:57;16.40;99.90
54788;DHT22;59598;48.112;16.280;2022-09-21T10:38:31;17.00;99.90
54788;DHT22;59598;48.112;16.280;2022-09-21T10:41:03;16.70;99.90
54788;DHT22;59598;48.112;16.280;2022-09-21T10:43:40;16.60;99.90
54788;DHT22;59598;48.112;16.280;2022-09-21T10:46:15;15.90;99.90
54788;DHT22;59598;48.112;16.280;2022-09-21T10:48:49;15.70;99.90
54788;DHT22;59598;48.112;16.280;2022-09-21T10:51:30;16.70;99.90
54788;DHT22;59598;48.112;16.280;2022-09-21T10:54:07;18.30;99.90
54788;DHT22;59598;48.112;16.280;2022-09-21T10:56:50;17.80;99.90
54788;DHT22;59598;48.112;16.280;2022-09-21T10:59:27;16.30;99.90
54788;DHT22;59598;48.112;16.280;2022-09-21T11:05:14;14.80;99.90
54788;DHT22;59598;48.112;16.280;2022-09-21T11:08:06;14.40;99.90
54788;DHT22;59598;48.112;16.280;2022-09-21T11:20:02;14.00;99.90
54788;DHT22;59598;48.112;16.280;2022-09-21T11:26:11;13.60;99.90
54788;DHT22;59598;48.112;16.280;2022-09-21T11:35:23;14.20;99.90
54788;DHT22;59598;48.112;16.280;2022-09-21T11:47:52;17.70;99.90
54788;DHT22;59598;48.112;16.280;2022-09-21T12:00:11;18.30;99.90
54788;DHT22;59598;48.112;16.280;2022-09-21T12:09:33;18.50;99.90
54788;DHT22;59598;48.112;16.280;2022-09-21T12:12:15;18.10;99.90
54788;DHT22;59598;48.112;16.280;2022-09-21T12:26:08;18.80;99.90
54788;DHT22;59598;48.112;16.280;2022-09-21T12:28:49;18.70;99.90
54788;DHT22;59598;48.112;16.280;2022-09-21T12:31:37;19.30;99.90
54788;DHT22;59598;48.112;16.280;2022-09-21T12:34:17;18.40;99.90
54788;DHT22;59598;48.112;16.280;2022-09-21T12:40:24;20.20;99.90
54788;DHT22;59598;48.112;16.280;2022-09-21T12:46:24;20.40;99.90
54788;DHT22;59598;48.112;16.280;2022-09-21T12:49:29;20.60;99.90
54788;DHT22;59598;48.112;16.280;2022-09-21T12:52:15;20.60;99.90
54788;DHT22;59598;48.112;16.280;2022-09-21T12:58:50;18.70;99.90
54788;DHT22;59598;48.112;16.280;2022-09-21T13:08:12;20.90;99.90
54788;DHT22;59598;48.112;16.280;2022-09-21T13:11:01;20.50;99.90
54788;DHT22;59598;48.112;16.280;2022-09-21T13:16:26;19.70;99.90
54788;DHT22;59598;48.112;16.280;2022-09-21T13:19:24;19.50;99.90
54788;DHT22;59598;48.112;16.280;2022-09-21T13:25:01;19.50;99.90
54788;DHT22;59598;48.112;16.280;2022-09-21T13:39:53;18.50;99.90
54788;DHT22;59598;48.112;16.280;2022-09-21T13:47:45;18.60;99.90
54788;DHT22;59598;48.112;16.280;2022-09-21T13:50:35;18.30;99.90
54788;DHT22;59598;48.112;16.280;2022-09-21T13:53:22;17.40;99.90
54788;DHT22;59598;48.112;16.280;2022-09-21T13:56:07;17.70;99.90
54788;DHT22;59598;48.112;16.280;2022-09-21T13:58:54;18.90;99.90
54788;DHT22;59598;48.112;16.280;2022-09-21T14:01:33;19.60;99.90
54788;DHT22;59598;48.112;16.280;2022-09-21T14:04:19;21.00;99.90
54788;DHT22;59598;48.112;16.280;2022-09-21T14:06:56;20.20;99.90
54788;DHT22;59598;48.112;16.280;2022-09-21T14:09:42;21.10;99.90
54788;DHT22;59598;48.112;16.280;2022-09-21T14:12:25;20.80;99.90
54788;DHT22;59598;48.112;16.280;2022-09-21T14:15:22;19.10;99.90
54788;DHT22;59598;48.112;16.280;2022-09-21T14:18:36;18.40;99.90
54788;DHT22;59598;48.112;16.280;2022-09-21T14:21:09;18.00;99.90
54788;DHT22;59598;48.112;16.280;2022-09-21T14:29:26;19.10;99.90
54788;DHT22;59598;48.112;16.280;2022-09-21T14:32:14;18.60;99.90
54788;DHT22;59598;48.112;16.280;2022-09-21T14:34:58;18.40;99.90
54788;DHT22;59598;48.112;16.280;2022-09-21T14:37:40;18.60;99.90
54788;DHT22;59598;48.112;16.280;2022-09-21T14:40:24;18.00;99.90
54788;DHT22;59598;48.112;16.280;2022-09-21T14:43:07;17.90;99.90
54788;DHT22;59598;48.112;16.280;2022-09-21T15:00:47;17.80;99.90
54788;DHT22;59598;48.112;16.280;2022-09-21T15:06:35;16.20;99.90
54788;DHT22;59598;48.112;16.280;2022-09-21T15:21:54;17.30;99.90
54788;DHT22;59598;48.112;16.280;2022-09-21T15:24:56;17.50;99.90
54788;DHT22;59598;48.112;16.280;2022-09-21T15:27:30;17.50;99.90
54788;DHT22;59598;48.112;16.280;2022-09-21T15:30:05;17.10;99.90
54788;DHT22;59598;48.112;16.280;2022-09-21T15:32:42;16.30;99.90
54788;DHT22;59598;48.112;16.280;2022-09-21T15:35:23;15.80;99.90
54788;DHT22;59598;48.112;16.280;2022-09-21T15:38:02;15.80;99.90
54788;DHT22;59598;48.112;16.280;2022-09-21T15:40:35;15.60;99.90
54788;DHT22;59598;48.112;16.280;2022-09-21T15:43:23;15.30;99.90
54788;DHT22;59598;48.112;16.280;2022-09-21T15:46:04;14.70;99.90
54788;DHT22;59598;48.112;16.280;2022-09-21T15:48:38;14.30;99.90
54788;DHT22;59598;48.112;16.280;2022-09-21T15:53:48;14.00;99.90
54788;DHT22;59598;48.112;16.280;2022-09-21T15:56:27;13.90;99.90
54788;DHT22;59598;48.112;16.280;2022-09-21T15:59:04;13.90;99.90
54788;DHT22;59598;48.112;16.280;2022-09-21T16:01:44;14.00;99.90
54788;DHT22;59598;48.112;16.280;2022-09-21T16:04:22;14.10;99.90
54788;DHT22;59598;48.112;16.280;2022-09-21T16:07:02;14.10;99.90
54788;DHT22;59598;48.112;16.280;2022-09-21T16:15:28;13.90;99.90
54788;DHT22;59598;48.112;16.280;2022-09-21T16:18:04;13.80;99.90
54788;DHT22;59598;48.112;16.280;2022-09-21T16:23:20;13.70;99.90
54788;DHT22;59598;48.112;16.280;2022-09-21T16:25:58;13.50;99.90
54788;DHT22;59598;48.112;16.280;2022-09-21T16:28:43;13.30;99.90
54788;DHT22;59598;48.112;16.280;2022-09-21T16:31:25;13.10;99.90
54788;DHT22;59598;48.112;16.280;2022-09-21T16:34:21;13.00;99.90
54788;DHT22;59598;48.112;16.280;2022-09-21T16:36:58;12.90;99.90
54788;DHT22;59598;48.112;16.280;2022-09-21T16:39:35;12.80;99.90
54788;DHT22;59598;48.112;16.280;2022-09-21T16:42:08;12.70;99.90
54788;DHT22;59598;48.112;16.280;2022-09-21T16:44:42;12.70;99.90
54788;DHT22;59598;48.112;16.280;2022-09-21T16:47:25;12.60;99.90
54788;DHT22;59598;48.112;16.280;2022-09-21T16:50:00;12.50;99.90
54788;DHT22;59598;48.112;16.280;2022-09-21T16:52:32;12.40;99.90
54788;DHT22;59598;48.112;16.280;2022-09-21T16:55:04;12.30;99.90
54788;DHT22;59598;48.112;16.280;2022-09-21T16:57:36;12.30;99.90
54788;DHT22;59598;48.112;16.280;2022-09-21T17:00:12;12.30;99.90
54788;DHT22;59598;48.112;16.280;2022-09-21T17:02:50;12.20;99.90
54788;DHT22;59598;48.112;16.280;2022-09-21T17:05:24;12.10;99.90
54788;DHT22;59598;48.112;16.280;2022-09-21T17:07:59;12.10;99.90
54788;DHT22;59598;48.112;16.280;2022-09-21T17:10:37;12.00;99.90
54788;DHT22;59598;48.112;16.280;2022-09-21T17:13:13;11.90;99.90
54788;DHT22;59598;48.112;16.280;2022-09-21T17:15:54;11.90;99.90
54788;DHT22;59598;48.112;16.280;2022-09-21T17:18:31;11.90;99.90
54788;DHT22;59598;48.112;16.280;2022-09-21T17:21:07;11.80;99.90
54788;DHT22;59598;48.112;16.280;2022-09-21T17:23:42;11.80;99.90
54788;DHT22;59598;48.112;16.280;2022-09-21T17:26:19;11.70;99.90
54788;DHT22;59598;48.112;16.280;2022-09-21T17:28:54;11.70;99.90
54788;DHT22;59598;48.112;16.280;2022-09-21T17:31:26;11.70;99.90
54788;DHT22;59598;48.112;16.280;2022-09-21T17:34:08;11.60;99.90
54788;DHT22;59598;48.112;16.280;2022-09-21T17:36:52;11.50;99.90
54788;DHT22;59598;48.112;16.280;2022-09-21T17:39:24;11.50;99.90
54788;DHT22;59598;48.112;16.280;2022-09-21T17:42:01;11.40;99.90
54788;DHT22;59598;48.112;16.280;2022-09-21T17:44:55;11.40;99.90
54788;DHT22;59598;48.112;16.280;2022-09-21T17:47:47;11.30;99.90
54788;DHT22;59598;48.112;16.280;2022-09-21T17:50:25;11.30;99.90
54788;DHT22;59598;48.112;16.280;2022-09-21T17:53:01;11.30;99.90
54788;DHT22;59598;48.112;16.280;2022-09-21T17:59:07;11.20;99.90
54788;DHT22;59598;48.112;16.280;2022-09-21T18:01:54;11.20;99.90
54788;DHT22;59598;48.112;16.280;2022-09-21T18:04:32;11.20;99.90
54788;DHT22;59598;48.112;16.280;2022-09-21T18:07:05;11.20;99.90
54788;DHT22;59598;48.112;16.280;2022-09-21T18:09:43;11.20;99.90
54788;DHT22;59598;48.112;16.280;2022-09-21T18:12:45;11.30;99.90
54788;DHT22;59598;48.112;16.280;2022-09-21T18:16:02;11.30;99.90
54788;DHT22;59598;48.112;16.280;2022-09-21T18:22:12;11.30;99.90
54788;DHT22;59598;48.112;16.280;2022-09-21T18:24:49;11.30;99.90
54788;DHT22;59598;48.112;16.280;2022-09-21T18:27:22;11.30;99.90
54788;DHT22;59598;48.112;16.280;2022-09-21T18:29:57;11.20;99.90
54788;DHT22;59598;48.112;16.280;2022-09-21T18:36:38;11.20;99.90
54788;DHT22;59598;48.112;16.280;2022-09-21T18:45:21;11.00;99.90
54788;DHT22;59598;48.112;16.280;2022-09-21T18:51:02;11.00;99.90
54788;DHT22;59598;48.112;16.280;2022-09-21T18:53:54;10.90;99.90
54788;DHT22;59598;48.112;16.280;2022-09-21T18:56:33;10.90;99.90
54788;DHT22;59598;48.112;16.280;2022-09-21T18:59:08;10.90;99.90
54788;DHT22;59598;48.112;16.280;2022-09-21T19:01:42;10.90;99.90
54788;DHT22;59598;48.112;16.280;2022-09-21T19:04:19;10.90;99.90
54788;DHT22;59598;48.112;16.280;2022-09-21T19:06:58;10.90;99.90
54788;DHT22;59598;48.112;16.280;2022-09-21T19:13:03;10.90;99.90
54788;DHT22;59598;48.112;16.280;2022-09-21T19:16:04;10.80;99.90
54788;DHT22;59598;48.112;16.280;2022-09-21T19:30:20;10.90;99.90
54788;DHT22;59598;48.112;16.280;2022-09-21T19:32:58;10.90;99.90
54788;DHT22;59598;48.112;16.280;2022-09-21T19:35:40;10.90;99.90
54788;DHT22;59598;48.112;16.280;2022-09-21T19:38:12;10.90;99.90
54788;DHT22;59598;48.112;16.280;2022-09-21T19:40:56;10.90;99.90
54788;DHT22;59598;48.112;16.280;2022-09-21T19:43:51;10.90;99.90
54788;DHT22;59598;48.112;16.280;2022-09-21T19:47:04;10.80;99.90
54788;DHT22;59598;48.112;16.280;2022-09-21T19:49:48;10.80;99.90
54788;DHT22;59598;48.112;16.280;2022-09-21T19:52:34;10.80;99.90
54788;DHT22;59598;48.112;16.280;2022-09-21T19:55:15;10.80;99.90
54788;DHT22;59598;48.112;16.280;2022-09-21T19:58:08;10.80;99.90
54788;DHT22;59598;48.112;16.280;2022-09-21T20:00:58;10.70;99.90
54788;DHT22;59598;48.112;16.280;2022-09-21T20:03:40;10.60;99.90
54788;DHT22;59598;48.112;16.280;2022-09-21T20:06:25;10.60;99.90
54788;DHT22;59598;48.112;16.280;2022-09-21T20:09:27;10.60;99.90
54788;DHT22;59598;48.112;16.280;2022-09-21T20:12:27;10.60;99.90
54788;DHT22;59598;48.112;16.280;2022-09-21T20:15:37;10.60;99.90
54788;DHT22;59598;48.112;16.280;2022-09-21T20:18:27;10.50;99.90
54788;DHT22;59598;48.112;16.280;2022-09-21T20:21:13;10.60;99.90
54788;DHT22;59598;48.112;16.280;2022-09-21T20:23:58;10.60;99.90
54788;DHT22;59598;48.112;16.280;2022-09-21T20:26:32;10.50;99.90
54788;DHT22;59598;48.112;16.280;2022-09-21T20:29:04;10.50;99.90
54788;DHT22;59598;48.112;16.280;2022-09-21T20:31:39;10.50;99.90
54788;DHT22;59598;48.112;16.280;2022-09-21T20:34:10;10.60;99.90